Time;durP1;ratioP1;P1;durP2;ratioP2;P2;SDS_P1;SDS_P2;PMS_P1;PMS_P2;Temp;Humidity;BMP_temperature;BMP_pressure;BME280_temperature;BME280_humidity;BME280_pressure;Samples;Min_cycle;Max_cycle;Signal;HPM_P1;HPM_P2
2023/01/25 00:01:58;;;;;;;34.65;17.50;;;3.20;99.90;;;;;;5007147;28;20046;-67
2023/01/25 00:04:25;;;;;;;24.77;15.57;;;3.10;99.90;;;;;;5006996;28;20057;-65
2023/01/25 00:06:52;;;;;;;27.90;15.57;;;3.00;99.90;;;;;;4988092;28;20601;-67
2023/01/25 00:09:19;;;;;;;24.17;14.98;;;2.90;99.90;;;;;;5001730;28;20261;-66
2023/01/25 00:11:46;;;;;;;26.60;15.48;;;2.90;99.90;;;;;;5038210;28;20061;-67
2023/01/25 00:14:13;;;;;;;23.58;14.52;;;2.80;99.90;;;;;;5008824;28;20519;-66
2023/01/25 00:16:40;;;;;;;24.55;15.20;;;2.80;99.90;;;;;;5041241;28;20104;-66
2023/01/25 00:19:07;;;;;;;31.60;17.00;;;2.70;99.90;;;;;;5009373;28;20060;-66
2023/01/25 00:21:34;;;;;;;28.35;15.70;;;2.70;99.90;;;;;;5007930;28;20038;-66
2023/01/25 00:24:01;;;;;;;27.27;15.52;;;2.60;99.90;;;;;;5008743;28;20072;-66
2023/01/25 00:26:33;;;;;;;28.75;15.95;;;2.50;99.90;;;;;;5008979;28;20049;-66
2023/01/25 00:29:00;;;;;;;24.20;14.75;;;2.50;99.90;;;;;;5007549;28;20125;-66
2023/01/25 00:31:33;;;;;;;26.55;16.35;;;2.40;99.90;;;;;;5007467;28;20561;-66
2023/01/25 00:34:22;;;;;;;27.45;15.80;;;2.60;99.90;;;;;;5007923;28;20489;-66
2023/01/25 00:37:09;;;;;;;27.92;14.77;;;2.30;99.90;;;;;;4999935;28;20045;-66
2023/01/25 00:39:38;;;;;;;26.13;15.55;;;2.30;99.90;;;;;;5024379;28;20545;-65
2023/01/25 00:42:07;;;;;;;27.73;15.70;;;2.20;99.90;;;;;;5039450;28;20054;-63
2023/01/25 00:44:34;;;;;;;29.35;16.83;;;2.30;99.90;;;;;;5008234;28;20046;-65
2023/01/25 00:47:01;;;;;;;23.13;15.10;;;2.30;99.90;;;;;;5009021;28;20121;-68
2023/01/25 00:49:30;;;;;;;25.25;15.10;;;2.20;99.90;;;;;;5008855;28;20084;-65
2023/01/25 00:51:57;;;;;;;24.73;15.52;;;2.20;99.90;;;;;;5008650;28;20050;-65
2023/01/25 00:54:24;;;;;;;24.30;15.27;;;2.30;99.90;;;;;;5008699;28;20058;-65
2023/01/25 00:56:55;;;;;;;27.25;15.77;;;2.20;99.90;;;;;;5008638;28;20046;-66
2023/01/25 00:59:22;;;;;;;24.20;14.95;;;2.20;99.90;;;;;;5007699;28;20068;-65
2023/01/25 01:01:49;;;;;;;23.15;14.48;;;2.20;99.90;;;;;;5008525;28;20052;-65
2023/01/25 01:04:16;;;;;;;30.15;16.35;;;2.20;99.90;;;;;;5008617;28;20045;-65
2023/01/25 01:06:43;;;;;;;27.80;14.07;;;2.20;99.90;;;;;;5008022;28;20115;-65
2023/01/25 01:09:16;;;;;;;25.10;14.63;;;2.10;99.90;;;;;;5008408;28;20049;-65
2023/01/25 01:11:43;;;;;;;27.73;14.32;;;2.20;99.90;;;;;;5007212;28;20050;-65
2023/01/25 01:14:09;;;;;;;24.92;15.45;;;2.20;99.90;;;;;;5008260;28;20531;-66
2023/01/25 01:16:36;;;;;;;26.10;15.32;;;2.30;99.90;;;;;;5008634;28;20128;-68
2023/01/25 01:19:03;;;;;;;26.02;15.73;;;2.20;99.90;;;;;;5008213;28;20046;-65
2023/01/25 01:21:30;;;;;;;24.70;13.98;;;2.30;99.90;;;;;;5007468;28;20049;-67
2023/01/25 01:23:57;;;;;;;26.02;15.38;;;2.30;99.90;;;;;;5024075;28;20048;-66
2023/01/25 01:26:24;;;;;;;26.42;15.57;;;2.30;99.90;;;;;;5007965;28;20119;-65
2023/01/25 01:28:50;;;;;;;23.42;15.00;;;2.30;99.90;;;;;;5008348;28;20114;-65
2023/01/25 01:31:21;;;;;;;25.33;14.30;;;2.30;99.90;;;;;;5007778;28;20128;-66
2023/01/25 01:33:49;;;;;;;27.50;16.17;;;2.40;99.90;;;;;;5008658;28;20061;-66
2023/01/25 01:36:17;;;;;;;25.58;13.55;;;2.40;99.90;;;;;;5008032;28;20041;-66
2023/01/25 01:38:43;;;;;;;24.20;14.45;;;2.40;99.90;;;;;;5007718;28;20065;-66
2023/01/25 01:41:10;;;;;;;25.73;15.95;;;2.50;99.90;;;;;;5012168;28;20082;-64
2023/01/25 01:43:37;;;;;;;22.27;13.57;;;2.50;99.90;;;;;;5007986;28;20042;-66
2023/01/25 01:46:10;;;;;;;29.20;17.10;;;2.50;99.90;;;;;;5023358;28;20097;-65
2023/01/25 01:48:50;;;;;;;25.80;15.05;;;2.60;99.90;;;;;;5005200;28;20046;-65
2023/01/25 01:51:19;;;;;;;27.60;14.68;;;2.60;99.90;;;;;;5007582;28;20045;-65
2023/01/25 01:53:50;;;;;;;28.60;16.50;;;2.60;99.90;;;;;;5008297;28;20048;-66
2023/01/25 01:56:19;;;;;;;26.42;14.60;;;2.60;99.90;;;;;;5007194;28;20050;-65
2023/01/25 01:58:46;;;;;;;25.13;14.73;;;2.60;99.90;;;;;;5022779;28;20080;-66
2023/01/25 02:01:13;;;;;;;25.52;15.23;;;2.60;99.90;;;;;;5022882;28;20132;-65
2023/01/25 02:03:40;;;;;;;25.02;16.42;;;2.70;99.90;;;;;;5022217;28;20060;-66
2023/01/25 02:06:13;;;;;;;31.33;16.95;;;2.70;99.90;;;;;;5008140;28;20052;-65
2023/01/25 02:08:39;;;;;;;28.20;16.80;;;2.70;99.90;;;;;;5005739;28;20069;-66
2023/01/25 02:11:06;;;;;;;24.30;15.15;;;2.70;99.90;;;;;;5036103;28;20339;-67
2023/01/25 02:13:34;;;;;;;27.02;16.88;;;2.70;99.90;;;;;;4658763;28;9999609;-66
2023/01/25 02:16:00;;;;;;;25.40;15.88;;;2.70;99.90;;;;;;5011208;28;20045;-66
2023/01/25 02:18:27;;;;;;;38.30;18.10;;;2.60;99.90;;;;;;5011107;28;20042;-66
2023/01/25 02:20:55;;;;;;;24.02;15.15;;;2.60;99.90;;;;;;5043388;28;20410;-64
2023/01/25 02:23:33;;;;;;;29.27;17.50;;;2.60;99.90;;;;;;5026148;28;20226;-66
2023/01/25 02:26:02;;;;;;;29.20;16.80;;;2.60;99.90;;;;;;5042454;28;20508;-66
2023/01/25 02:28:45;;;;;;;29.85;16.65;;;2.50;99.90;;;;;;5025759;28;20125;-66
2023/01/25 02:31:12;;;;;;;28.30;16.08;;;2.50;99.90;;;;;;5009751;28;20153;-66
2023/01/25 02:33:39;;;;;;;28.77;15.70;;;2.60;99.90;;;;;;5012522;28;20049;-66
2023/01/25 02:36:06;;;;;;;27.85;16.98;;;2.50;99.90;;;;;;5010978;28;20060;-66
2023/01/25 02:38:45;;;;;;;27.08;16.70;;;2.50;99.90;;;;;;5010680;28;20046;-66
2023/01/25 02:41:22;;;;;;;27.58;17.13;;;2.50;99.90;;;;;;5009551;28;20050;-65
2023/01/25 02:43:49;;;;;;;28.48;16.58;;;2.50;99.90;;;;;;5025330;28;20042;-66
2023/01/25 02:46:27;;;;;;;30.08;17.75;;;2.50;99.90;;;;;;5010734;28;20516;-66
2023/01/25 02:48:54;;;;;;;31.58;17.00;;;2.50;99.90;;;;;;5042354;28;20092;-65
2023/01/25 02:51:22;;;;;;;20.08;12.73;;;2.60;99.90;;;;;;5010819;28;20052;-66
2023/01/25 02:53:49;;;;;;;26.92;16.35;;;2.60;99.90;;;;;;5010201;28;20041;-65
2023/01/25 02:56:16;;;;;;;26.20;17.48;;;2.70;99.90;;;;;;5010983;28;20056;-65
2023/01/25 02:58:43;;;;;;;28.40;17.52;;;2.80;99.90;;;;;;5010055;28;20281;-67
2023/01/25 03:01:10;;;;;;;25.98;15.52;;;2.70;99.90;;;;;;5025826;28;20281;-66
2023/01/25 03:03:37;;;;;;;31.40;17.27;;;2.70;99.90;;;;;;5010759;28;20069;-65
2023/01/25 03:06:04;;;;;;;29.60;16.92;;;2.60;99.90;;;;;;5011116;28;20042;-66
2023/01/25 03:08:31;;;;;;;29.20;16.60;;;2.60;99.90;;;;;;5011423;28;20068;-66
2023/01/25 03:10:59;;;;;;;31.48;18.33;;;2.50;99.90;;;;;;5025635;28;20056;-66
2023/01/25 03:13:25;;;;;;;33.45;18.08;;;2.60;99.90;;;;;;5010734;28;20148;-65
2023/01/25 03:15:57;;;;;;;33.50;19.23;;;2.50;99.90;;;;;;5010365;28;20041;-66
2023/01/25 03:18:23;;;;;;;28.33;17.42;;;2.50;99.90;;;;;;5025172;28;20500;-66
2023/01/25 03:20:50;;;;;;;28.17;16.33;;;2.40;99.90;;;;;;5010117;28;20054;-65
2023/01/25 03:23:17;;;;;;;31.33;18.65;;;2.50;99.90;;;;;;5010110;28;20046;-66
2023/01/25 03:25:44;;;;;;;31.85;18.55;;;2.50;99.90;;;;;;5010139;28;20046;-66
2023/01/25 03:28:10;;;;;;;33.42;18.95;;;2.50;99.90;;;;;;5011117;28;20042;-65
2023/01/25 03:30:37;;;;;;;31.40;18.70;;;2.50;99.90;;;;;;5010116;28;20225;-66
2023/01/25 03:33:04;;;;;;;32.20;19.23;;;2.50;99.90;;;;;;5010752;28;20056;-67
2023/01/25 03:35:30;;;;;;;35.80;19.95;;;2.50;99.90;;;;;;5009762;28;20409;-66
2023/01/25 03:37:57;;;;;;;33.03;19.02;;;2.50;99.90;;;;;;5010655;28;20058;-66
2023/01/25 03:40:24;;;;;;;32.65;19.35;;;2.50;99.90;;;;;;5009692;28;20413;-66
2023/01/25 03:42:52;;;;;;;36.13;18.83;;;2.40;99.90;;;;;;5041802;28;20048;-65
2023/01/25 03:45:19;;;;;;;39.35;19.52;;;2.20;99.90;;;;;;5010029;28;20046;-67
2023/01/25 03:47:46;;;;;;;28.27;16.98;;;2.40;99.90;;;;;;5010829;28;20130;-67
2023/01/25 03:50:12;;;;;;;33.97;17.17;;;2.40;99.90;;;;;;5010289;28;20045;-67
2023/01/25 03:52:41;;;;;;;31.95;17.23;;;2.40;99.90;;;;;;5009979;28;20149;-66
2023/01/25 03:55:08;;;;;;;33.47;17.75;;;2.30;99.90;;;;;;5010794;28;20052;-67
2023/01/25 03:57:36;;;;;;;33.78;17.27;;;2.30;99.90;;;;;;5033768;28;20134;-66
2023/01/25 04:00:03;;;;;;;34.85;19.33;;;2.30;99.90;;;;;;5001728;28;20046;-67
2023/01/25 04:02:30;;;;;;;32.67;18.48;;;2.30;99.90;;;;;;5011971;28;20046;-67
2023/01/25 04:04:57;;;;;;;31.95;17.73;;;2.20;99.90;;;;;;5008283;28;20081;-67
2023/01/25 04:07:23;;;;;;;36.00;17.95;;;2.10;99.90;;;;;;5012419;28;20054;-66
2023/01/25 04:09:50;;;;;;;30.38;18.65;;;2.20;99.90;;;;;;5027406;28;20050;-67
2023/01/25 04:12:17;;;;;;;31.35;18.00;;;2.10;99.90;;;;;;5011230;28;20096;-67
2023/01/25 04:14:44;;;;;;;33.22;19.55;;;2.00;99.90;;;;;;5009642;28;20077;-67
2023/01/25 04:17:11;;;;;;;36.50;19.40;;;2.10;99.90;;;;;;5008099;28;20068;-66
2023/01/25 04:19:38;;;;;;;36.17;17.88;;;2.10;99.90;;;;;;5008484;28;20144;-67
2023/01/25 04:22:05;;;;;;;33.92;19.30;;;2.10;99.90;;;;;;5008783;28;20052;-67
2023/01/25 04:24:32;;;;;;;38.25;19.05;;;2.20;99.90;;;;;;5024485;28;20083;-68
2023/01/25 04:26:58;;;;;;;37.40;19.25;;;2.10;99.90;;;;;;5009473;28;20048;-66
2023/01/25 04:29:25;;;;;;;36.28;19.48;;;2.10;99.90;;;;;;5008910;28;20046;-65
2023/01/25 04:32:06;;;;;;;35.28;20.50;;;2.10;99.90;;;;;;5008334;28;20057;-65
2023/01/25 04:34:33;;;;;;;34.45;18.83;;;2.20;99.90;;;;;;5009154;28;20064;-65
2023/01/25 04:37:00;;;;;;;34.97;18.92;;;2.20;99.90;;;;;;5008640;28;20046;-67
2023/01/25 04:39:27;;;;;;;33.85;17.88;;;2.60;99.90;;;;;;5008694;28;20507;-67
2023/01/25 04:41:53;;;;;;;35.95;21.05;;;2.00;99.90;;;;;;5008768;28;20046;-66
2023/01/25 04:44:20;;;;;;;38.72;20.17;;;2.10;99.90;;;;;;5008369;28;20060;-66
2023/01/25 04:46:48;;;;;;;34.15;19.95;;;2.00;99.90;;;;;;5008686;28;20050;-65
2023/01/25 04:49:15;;;;;;;56.60;20.65;;;2.00;99.90;;;;;;5008160;28;20489;-65
2023/01/25 04:51:41;;;;;;;37.65;20.08;;;1.90;99.90;;;;;;5008288;28;20049;-66
2023/01/25 04:54:08;;;;;;;37.05;19.58;;;1.90;99.90;;;;;;5008194;28;20061;-65
2023/01/25 04:56:35;;;;;;;32.45;18.95;;;1.90;99.90;;;;;;5008514;28;20079;-66
2023/01/25 04:59:01;;;;;;;31.90;17.77;;;1.90;99.90;;;;;;5016874;28;20151;-66
2023/01/25 05:01:28;;;;;;;35.15;18.85;;;2.50;99.90;;;;;;5010062;28;20050;-66
2023/01/25 05:03:55;;;;;;;36.22;19.67;;;1.90;99.90;;;;;;5008431;28;20544;-66
2023/01/25 05:06:22;;;;;;;35.55;19.48;;;2.00;99.90;;;;;;5008434;28;20053;-66
2023/01/25 05:08:48;;;;;;;32.35;18.10;;;1.90;99.90;;;;;;5023022;28;20050;-67
2023/01/25 05:11:15;;;;;;;35.53;18.58;;;2.00;99.90;;;;;;5008248;28;20097;-68
2023/01/25 05:13:42;;;;;;;35.60;18.60;;;2.00;99.90;;;;;;5007793;28;20433;-66
2023/01/25 05:16:08;;;;;;;35.85;18.88;;;2.00;99.90;;;;;;5008592;28;20054;-66
2023/01/25 05:18:35;;;;;;;38.33;20.55;;;2.00;99.90;;;;;;5007761;28;20053;-66
2023/01/25 05:23:59;;;;;;;33.60;18.35;;;2.00;99.90;;;;;;5008769;28;20038;-66
2023/01/25 05:29:11;;;;;;;33.80;17.75;;;2.20;99.90;;;;;;5035278;28;20522;-66
2023/01/25 05:31:38;;;;;;;34.83;19.25;;;2.10;99.90;;;;;;5009158;28;20401;-66
2023/01/25 05:34:05;;;;;;;38.75;20.55;;;2.10;99.90;;;;;;5008930;28;20105;-66
2023/01/25 05:36:32;;;;;;;36.97;20.48;;;2.00;99.90;;;;;;5009835;28;20056;-66
2023/01/25 05:38:58;;;;;;;39.65;20.92;;;2.00;99.90;;;;;;5009562;28;20078;-67
2023/01/25 05:41:25;;;;;;;38.92;20.48;;;2.00;99.90;;;;;;5009236;28;20049;-65
2023/01/25 05:43:52;;;;;;;35.65;18.75;;;1.90;99.90;;;;;;5006720;28;20141;-66
2023/01/25 05:46:18;;;;;;;31.73;18.92;;;1.70;99.90;;;;;;5010848;28;20492;-66
2023/01/25 05:48:47;;;;;;;43.50;21.80;;;1.70;99.90;;;;;;5011971;28;20042;-65
2023/01/25 05:51:13;;;;;;;35.72;20.17;;;1.60;99.90;;;;;;5011748;28;20584;-66
2023/01/25 05:53:40;;;;;;;40.53;20.83;;;1.60;99.90;;;;;;5012154;28;20123;-65
2023/01/25 05:56:07;;;;;;;35.38;19.98;;;1.50;99.90;;;;;;5012204;28;20045;-65
2023/01/25 05:58:34;;;;;;;38.70;20.30;;;1.50;99.90;;;;;;5012046;28;20413;-65
2023/01/25 06:01:01;;;;;;;39.13;22.00;;;1.60;99.90;;;;;;5011624;28;20060;-67
2023/01/25 06:03:28;;;;;;;38.75;20.88;;;1.60;99.90;;;;;;5026968;28;20128;-66
2023/01/25 06:05:56;;;;;;;48.22;22.30;;;1.60;99.90;;;;;;5011460;28;20154;-66
2023/01/25 06:08:23;;;;;;;41.58;20.63;;;1.60;99.90;;;;;;5011702;28;20056;-65
2023/01/25 06:10:49;;;;;;;38.47;20.73;;;1.90;99.90;;;;;;5011282;28;20493;-66
2023/01/25 06:13:16;;;;;;;44.65;21.42;;;1.70;99.90;;;;;;5012084;28;20100;-66
2023/01/25 06:15:53;;;;;;;43.92;21.08;;;1.70;99.90;;;;;;5027316;28;20129;-66
2023/01/25 06:18:20;;;;;;;41.63;22.00;;;1.60;99.90;;;;;;5042778;28;20065;-65
2023/01/25 06:20:47;;;;;;;38.65;20.52;;;1.70;99.90;;;;;;5011688;28;20050;-65
2023/01/25 06:23:14;;;;;;;39.55;20.98;;;1.70;99.90;;;;;;5012475;28;20054;-65
2023/01/25 06:25:40;;;;;;;44.67;25.08;;;1.60;99.90;;;;;;5011887;28;20046;-65
2023/01/25 06:28:07;;;;;;;38.38;20.92;;;1.70;99.90;;;;;;5011344;28;20060;-65
2023/01/25 06:30:34;;;;;;;42.50;20.73;;;1.90;99.90;;;;;;5010186;28;20569;-66
2023/01/25 06:33:01;;;;;;;40.65;21.77;;;1.80;99.90;;;;;;5011667;28;20052;-66
2023/01/25 06:35:28;;;;;;;48.53;23.90;;;1.80;99.90;;;;;;5026480;28;20078;-67
2023/01/25 06:37:55;;;;;;;38.55;22.35;;;1.80;99.90;;;;;;5011260;28;20049;-65
2023/01/25 06:40:22;;;;;;;36.17;19.98;;;1.80;99.90;;;;;;5026258;28;20120;-66
2023/01/25 06:42:49;;;;;;;46.28;23.77;;;1.80;99.90;;;;;;5010535;28;20052;-67
2023/01/25 06:45:16;;;;;;;39.35;21.80;;;1.80;99.90;;;;;;5010891;28;20783;-68
2023/01/25 06:47:42;;;;;;;41.17;21.98;;;1.90;99.90;;;;;;5010718;28;20445;-67
2023/01/25 06:50:09;;;;;;;44.28;21.88;;;1.70;99.90;;;;;;5009365;28;20400;-67
2023/01/25 06:52:36;;;;;;;41.58;21.48;;;1.80;99.90;;;;;;5010808;28;20048;-67
2023/01/25 06:55:12;;;;;;;44.97;22.50;;;1.70;99.90;;;;;;5010674;28;20054;-67
2023/01/25 06:57:39;;;;;;;41.53;22.85;;;1.70;99.90;;;;;;5009562;28;20053;-67
2023/01/25 07:00:07;;;;;;;43.75;23.35;;;1.70;99.90;;;;;;5010283;28;20057;-67
2023/01/25 07:02:35;;;;;;;55.47;24.65;;;1.60;99.90;;;;;;5010417;28;20046;-68
2023/01/25 07:05:02;;;;;;;44.63;23.40;;;1.60;99.90;;;;;;5026067;28;20081;-71
2023/01/25 07:07:28;;;;;;;39.85;22.60;;;1.60;99.90;;;;;;5010133;28;20049;-69
2023/01/25 07:09:55;;;;;;;44.03;21.60;;;1.70;99.90;;;;;;5010603;28;20050;-68
2023/01/25 07:12:22;;;;;;;48.30;23.77;;;1.70;99.90;;;;;;5009456;28;20575;-68
2023/01/25 07:14:49;;;;;;;44.60;22.13;;;1.80;99.90;;;;;;4999344;28;20507;-68
2023/01/25 07:17:16;;;;;;;50.25;26.15;;;1.80;99.90;;;;;;5009085;28;20600;-68
2023/01/25 07:19:42;;;;;;;54.65;25.90;;;1.70;99.90;;;;;;5010631;28;20493;-68
2023/01/25 07:22:09;;;;;;;52.38;26.33;;;1.60;99.90;;;;;;5011035;28;20576;-69
2023/01/25 07:24:36;;;;;;;52.28;25.13;;;1.70;99.90;;;;;;5010363;28;20121;-68
2023/01/25 07:27:03;;;;;;;53.67;24.65;;;1.70;99.90;;;;;;5010735;28;20096;-67
2023/01/25 07:29:29;;;;;;;53.60;24.67;;;1.80;99.90;;;;;;5010577;28;20079;-68
2023/01/25 07:31:56;;;;;;;48.05;25.13;;;1.70;99.90;;;;;;5009877;28;20080;-68
2023/01/25 07:34:23;;;;;;;49.88;25.48;;;1.80;99.90;;;;;;5010525;28;20145;-69
2023/01/25 07:36:50;;;;;;;49.10;27.85;;;1.80;99.90;;;;;;5010607;28;20509;-68
2023/01/25 07:39:17;;;;;;;50.38;26.13;;;2.00;99.90;;;;;;5010073;28;20581;-70
2023/01/25 07:41:43;;;;;;;52.85;26.48;;;1.80;99.90;;;;;;5010553;28;20063;-70
2023/01/25 07:44:10;;;;;;;53.40;26.30;;;1.80;99.90;;;;;;5010500;28;20107;-70
2023/01/25 07:46:37;;;;;;;57.85;26.02;;;1.80;99.90;;;;;;5009748;28;20050;-70
2023/01/25 07:49:04;;;;;;;54.90;27.80;;;1.80;99.90;;;;;;5006058;28;20444;-71
2023/01/25 07:51:30;;;;;;;50.00;23.85;;;1.70;99.90;;;;;;5007489;28;20057;-72
2023/01/25 07:54:02;;;;;;;50.83;26.98;;;1.80;99.90;;;;;;5008444;28;20046;-72
2023/01/25 07:56:33;;;;;;;58.38;28.65;;;1.70;99.90;;;;;;5023387;28;20049;-71
2023/01/25 07:59:01;;;;;;;57.75;27.02;;;1.70;99.90;;;;;;5008197;28;20077;-71
2023/01/25 08:01:29;;;;;;;50.13;25.33;;;1.70;99.90;;;;;;5008442;28;20050;-71
2023/01/25 08:03:56;;;;;;;57.05;26.45;;;1.60;99.90;;;;;;5009649;28;20041;-71
2023/01/25 08:06:29;;;;;;;66.13;27.90;;;1.60;99.90;;;;;;5009667;28;20041;-71
2023/01/25 08:08:57;;;;;;;46.92;23.30;;;1.70;99.90;;;;;;5008316;28;20113;-71
2023/01/25 08:11:25;;;;;;;52.58;24.38;;;1.60;99.90;;;;;;5009795;28;20048;-72
2023/01/25 08:13:52;;;;;;;70.30;27.75;;;1.80;99.90;;;;;;5009909;28;20053;-71
2023/01/25 08:16:20;;;;;;;58.97;23.77;;;1.70;99.90;;;;;;5009955;28;20121;-71
2023/01/25 08:18:55;;;;;;;54.65;24.60;;;1.70;99.90;;;;;;5041231;28;20128;-69
2023/01/25 08:21:28;;;;;;;45.80;23.45;;;1.60;99.90;;;;;;5010143;28;20094;-71
2023/01/25 08:23:59;;;;;;;47.28;23.52;;;1.60;99.90;;;;;;5009766;28;20049;-71
2023/01/25 08:26:26;;;;;;;51.55;22.15;;;1.70;99.90;;;;;;5009582;28;20062;-71
2023/01/25 08:28:53;;;;;;;40.03;20.23;;;1.70;99.90;;;;;;5009607;28;20050;-72
2023/01/25 08:31:22;;;;;;;52.92;22.25;;;1.60;99.90;;;;;;5008358;28;20717;-71
2023/01/25 08:33:50;;;;;;;57.72;24.60;;;1.60;99.90;;;;;;5024839;28;20053;-71
2023/01/25 08:36:17;;;;;;;48.60;21.30;;;1.60;99.90;;;;;;5024446;28;20081;-71
2023/01/25 08:38:47;;;;;;;54.03;21.85;;;1.60;99.90;;;;;;5041316;28;20058;-71
2023/01/25 08:41:18;;;;;;;48.25;20.83;;;1.70;99.90;;;;;;5010048;28;20129;-71
2023/01/25 08:43:45;;;;;;;48.38;22.38;;;1.50;99.90;;;;;;5010586;28;20100;-71
2023/01/25 08:46:13;;;;;;;45.97;21.02;;;1.50;99.90;;;;;;5010769;28;20096;-71
2023/01/25 08:48:40;;;;;;;47.08;23.33;;;1.60;99.90;;;;;;5010218;28;20104;-71
2023/01/25 08:51:07;;;;;;;48.28;21.80;;;1.60;99.90;;;;;;5009604;28;20042;-71
2023/01/25 08:53:34;;;;;;;53.03;22.65;;;1.60;99.90;;;;;;5009578;28;20132;-71
2023/01/25 08:56:11;;;;;;;53.97;25.02;;;1.50;99.90;;;;;;5040040;28;20069;-71
2023/01/25 08:58:40;;;;;;;50.92;22.77;;;1.50;99.90;;;;;;4999373;28;20587;-73
2023/01/25 09:01:08;;;;;;;49.92;23.05;;;1.50;99.90;;;;;;5007639;28;20044;-71
2023/01/25 09:03:39;;;;;;;54.13;22.95;;;1.50;99.90;;;;;;5039097;28;20068;-71
2023/01/25 09:06:06;;;;;;;48.42;22.35;;;1.50;99.90;;;;;;5007491;28;20050;-71
2023/01/25 09:08:33;;;;;;;54.35;23.02;;;1.50;99.90;;;;;;5008114;28;20124;-70
2023/01/25 09:11:04;;;;;;;48.72;21.63;;;1.50;99.90;;;;;;5007087;28;20054;-71
2023/01/25 09:13:31;;;;;;;54.42;23.55;;;1.60;99.90;;;;;;5009006;28;20071;-71
2023/01/25 09:16:08;;;;;;;53.78;25.35;;;1.60;99.90;;;;;;5008686;28;20056;-70
2023/01/25 09:18:36;;;;;;;52.92;21.98;;;1.60;99.90;;;;;;5006092;28;20046;-71
2023/01/25 09:21:07;;;;;;;53.95;22.88;;;1.40;99.90;;;;;;5023105;28;20045;-71
2023/01/25 09:23:34;;;;;;;49.78;24.08;;;1.40;99.90;;;;;;5008099;28;20046;-71
2023/01/25 09:26:17;;;;;;;45.08;20.20;;;1.40;99.90;;;;;;5008572;28;20049;-71
2023/01/25 09:28:48;;;;;;;44.53;19.20;;;1.40;99.90;;;;;;5039720;28;20056;-72
2023/01/25 09:31:15;;;;;;;50.25;21.40;;;1.50;99.90;;;;;;5008678;28;20182;-71
2023/01/25 09:33:49;;;;;;;55.40;21.80;;;1.40;99.90;;;;;;5007818;28;20129;-70
2023/01/25 09:36:16;;;;;;;57.05;21.27;;;1.30;99.90;;;;;;5008877;28;20049;-70
2023/01/25 09:38:43;;;;;;;50.60;21.67;;;1.30;99.90;;;;;;5008422;28;20493;-70
2023/01/25 09:41:30;;;;;;;55.78;21.83;;;1.40;99.90;;;;;;5008687;28;20057;-69
2023/01/25 09:43:57;;;;;;;52.08;22.05;;;1.30;99.90;;;;;;5023230;28;20417;-72
2023/01/25 09:46:36;;;;;;;40.67;19.73;;;1.50;99.90;;;;;;5008456;28;20054;-72
2023/01/25 09:49:25;;;;;;;53.08;20.45;;;1.60;99.90;;;;;;5008636;28;20054;-72
2023/01/25 09:52:29;;;;;;;44.58;19.58;;;1.30;99.90;;;;;;5008654;28;20084;-70
2023/01/25 09:54:56;;;;;;;55.58;20.95;;;1.20;99.90;;;;;;5006271;28;20042;-71
2023/01/25 09:57:32;;;;;;;55.65;21.63;;;1.30;99.90;;;;;;5039942;28;20052;-70
2023/01/25 10:00:01;;;;;;;54.30;21.45;;;1.40;99.90;;;;;;5005814;28;20137;-70
2023/01/25 10:02:33;;;;;;;49.58;22.50;;;1.50;99.90;;;;;;5008007;28;20046;-70
2023/01/25 10:05:06;;;;;;;51.80;22.20;;;1.40;99.90;;;;;;5008326;28;20046;-70
2023/01/25 10:07:43;;;;;;;58.17;23.42;;;1.50;99.90;;;;;;5006876;28;20050;-71
2023/01/25 10:10:12;;;;;;;58.65;23.90;;;1.80;99.90;;;;;;5039763;28;20042;-70
2023/01/25 10:12:39;;;;;;;60.20;23.95;;;1.70;99.90;;;;;;5039519;28;20060;-71
2023/01/25 10:15:16;;;;;;;48.55;22.85;;;1.80;99.90;;;;;;5008202;28;20037;-71
2023/01/25 10:17:43;;;;;;;52.03;21.13;;;1.90;99.90;;;;;;5008163;28;20547;-71
2023/01/25 10:20:23;;;;;;;45.17;20.95;;;1.90;99.90;;;;;;5006784;28;20577;-71
2023/01/25 10:23:14;;;;;;;56.35;22.25;;;1.90;99.90;;;;;;5007898;28;20050;-70
2023/01/25 10:25:49;;;;;;;54.53;23.23;;;1.90;99.90;;;;;;5007224;28;20046;-70
2023/01/25 10:28:35;;;;;;;48.10;20.70;;;2.10;99.90;;;;;;5007267;28;20100;-70
2023/01/25 10:31:13;;;;;;;54.28;20.48;;;2.10;99.90;;;;;;5033969;28;20054;-70
2023/01/25 10:33:42;;;;;;;46.58;19.92;;;2.20;99.90;;;;;;5012014;28;20050;-71
2023/01/25 10:36:11;;;;;;;48.35;20.45;;;2.10;99.90;;;;;;5043373;28;20739;-71
2023/01/25 10:38:46;;;;;;;39.97;18.92;;;2.20;99.90;;;;;;5042694;28;20060;-70
2023/01/25 10:41:25;;;;;;;52.50;23.17;;;2.30;99.90;;;;;;5026570;28;20044;-71
2023/01/25 10:44:20;;;;;;;147.35;61.47;;;2.40;99.90;;;;;;5041347;28;20145;-71
2023/01/25 10:46:39;;;;;;;47.08;19.50;;;2.40;99.90;;;;;;5009936;28;20077;-70
2023/01/25 10:49:28;;;;;;;49.85;20.30;;;2.40;99.90;;;;;;5026444;28;20623;-70
2023/01/25 10:51:55;;;;;;;37.72;17.35;;;2.50;99.90;;;;;;5039288;28;20056;-71
2023/01/25 10:54:22;;;;;;;45.17;18.77;;;2.60;99.90;;;;;;5011106;28;20045;-70
2023/01/25 10:56:49;;;;;;;35.05;16.17;;;2.70;99.90;;;;;;5011532;28;20050;-70
2023/01/25 10:59:23;;;;;;;40.75;17.20;;;2.80;99.90;;;;;;5011791;28;20071;-70
2023/01/25 11:01:50;;;;;;;;;;;2.90;99.90;;;;;;5025633;28;20056;-71
2023/01/25 11:04:34;;;;;;;38.85;16.85;;;3.00;99.90;;;;;;5011137;28;19991;-70
2023/01/25 11:07:04;;;;;;;36.70;17.52;;;3.10;99.90;;;;;;5011023;28;20096;-72
2023/01/25 11:09:39;;;;;;;35.38;15.80;;;3.10;99.90;;;;;;5042521;28;20050;-72
2023/01/25 11:12:17;;;;;;;37.60;16.38;;;3.20;99.90;;;;;;5011043;28;20037;-71
2023/01/25 11:14:44;;;;;;;37.17;14.80;;;3.30;99.90;;;;;;5026431;28;20424;-70
2023/01/25 11:17:23;;;;;;;33.38;14.48;;;3.40;99.90;;;;;;5026802;28;20140;-70
2023/01/25 11:20:19;;;;;;;33.42;13.50;;;3.40;99.90;;;;;;5011455;28;20128;-72
2023/01/25 11:22:53;;;;;;;31.02;13.57;;;3.50;99.90;;;;;;5008529;28;20480;-71
2023/01/25 11:25:23;;;;;;;23.50;10.50;;;3.60;99.90;;;;;;5009428;28;20045;-71
2023/01/25 11:27:50;;;;;;;24.05;9.63;;;3.60;99.90;;;;;;5007956;28;20054;-70
2023/01/25 11:30:20;;;;;;;22.25;11.05;;;3.60;99.90;;;;;;5010635;28;20072;-72
2023/01/25 11:32:47;;;;;;;23.95;10.65;;;3.60;99.90;;;;;;5017844;28;20045;-71
2023/01/25 11:35:15;;;;;;;21.33;10.70;;;3.70;99.90;;;;;;5010750;28;20096;-72
2023/01/25 11:37:53;;;;;;;25.95;10.98;;;3.80;99.90;;;;;;5010391;28;20050;-72
2023/01/25 11:40:40;;;;;;;22.73;10.95;;;3.80;99.90;;;;;;5010839;28;20073;-72
2023/01/25 11:43:25;;;;;;;24.10;11.98;;;3.90;99.90;;;;;;5036776;28;20052;-73
2023/01/25 11:46:04;;;;;;;21.15;8.73;;;4.00;99.90;;;;;;5009454;28;20081;-73
2023/01/25 11:48:42;;;;;;;21.88;9.48;;;4.00;99.90;;;;;;5009283;28;20080;-72
2023/01/25 11:51:17;;;;;;;18.77;8.98;;;4.20;99.90;;;;;;5009882;28;20085;-72
2023/01/25 11:53:52;;;;;;;19.60;9.15;;;4.20;99.90;;;;;;5040710;28;20060;-71
2023/01/25 11:56:50;;;;;;;15.57;7.22;;;4.30;99.90;;;;;;5009951;28;20053;-72
2023/01/25 11:59:30;;;;;;;17.10;6.38;;;4.40;99.90;;;;;;4999726;28;20053;-71
2023/01/25 12:02:38;;;;;;;15.60;7.55;;;4.50;99.90;;;;;;5041506;28;20052;-72
2023/01/25 12:05:27;;;;;;;15.25;7.57;;;4.60;99.90;;;;;;4982467;28;20130;-74
2023/01/25 12:08:02;;;;;;;15.02;7.05;;;4.60;99.90;;;;;;5006430;28;20046;-72
2023/01/25 12:10:54;;;;;;;15.27;7.40;;;4.60;99.90;;;;;;5010465;28;20057;-72
2023/01/25 12:13:26;;;;;;;16.35;7.60;;;4.50;99.90;;;;;;5003144;28;20053;-72
2023/01/25 12:15:55;;;;;;;15.07;6.90;;;4.60;99.90;;;;;;5008656;28;20524;-71
2023/01/25 12:18:36;;;;;;;15.20;7.35;;;4.60;99.90;;;;;;5009697;28;20057;-71
2023/01/25 12:21:22;;;;;;;13.70;6.72;;;4.60;99.90;;;;;;5041473;28;20058;-72
2023/01/25 12:24:07;;;;;;;20.88;8.68;;;4.70;99.90;;;;;;5038861;28;20053;-71
2023/01/25 12:26:59;;;;;;;15.82;7.88;;;4.60;99.90;;;;;;5024996;28;20050;-71
2023/01/25 12:29:37;;;;;;;17.15;7.55;;;4.70;99.90;;;;;;4996080;28;20050;-72
2023/01/25 12:32:08;;;;;;;17.13;9.32;;;4.80;99.90;;;;;;5009331;28;20062;-70
2023/01/25 12:34:36;;;;;;;17.67;8.68;;;4.90;99.90;;;;;;5008437;28;20048;-71
2023/01/25 12:37:14;;;;;;;21.40;9.18;;;4.90;99.90;;;;;;5040865;28;20054;-72
2023/01/25 12:39:46;;;;;;;21.85;9.90;;;4.90;99.90;;;;;;5041194;28;20058;-71
2023/01/25 12:42:24;;;;;;;17.00;9.25;;;4.80;99.90;;;;;;5041321;28;20050;-72
2023/01/25 12:45:08;;;;;;;17.52;8.50;;;4.80;99.90;;;;;;5024319;28;20133;-72
2023/01/25 12:48:00;;;;;;;17.85;8.73;;;4.90;99.90;;;;;;5041146;28;20082;-72
2023/01/25 12:50:34;;;;;;;16.27;7.72;;;4.80;99.90;;;;;;5035287;28;20112;-72
2023/01/25 12:53:14;;;;;;;22.95;10.80;;;4.90;99.90;;;;;;5008215;28;20081;-72
2023/01/25 12:55:40;;;;;;;21.80;10.32;;;4.90;99.90;;;;;;5041328;28;20133;-73
2023/01/25 12:58:37;;;;;;;21.02;11.10;;;4.90;99.90;;;;;;5041558;28;20062;-72
2023/01/25 13:01:15;;;;;;;16.40;7.82;;;5.00;99.90;;;;;;5038514;28;20540;-72